< Cyclone 199210 1993 Season Cyclone 199302 >
Cyclone 199301 (KEN)
General InformationTrack Information on Google MapsDetailed Wind InformationList of All Images || ResourceGoogle EarthGE AnimationAtom FeedGeoJSON
Detalied Best Track (Time Zone = UTC)
Year Month Day Hour Lat. Long. Pressure (hPa) Wind (kt) Class Image Chart
1992 12 18 00 -10.6 99.7 1000 27 2 Image --
1992 12 18 06 -11.2 99.5 1000 27 2 Image --
1992 12 18 12 -11.6 98.9 1000 27 2 Image --
1992 12 18 18 -11.9 98.2 995 35 3 Image --
1992 12 19 00 -12.2 97.5 995 35 3 Image --
1992 12 19 03 -12.4 97.2 995 35 3 Image --
1992 12 19 06 -12.6 96.9 990 41 3 Image --
1992 12 19 09 -12.8 96.6 990 41 3 Image --
1992 12 19 12 -13.1 96.2 990 41 3 Image --
1992 12 19 18 -13.4 95.6 995 35 3 Image --
1992 12 20 00 -13.8 94.9 995 35 3 Image --
1992 12 20 06 -14.3 94.2 995 35 3 Image --
1992 12 20 12 -14.8 93.4 995 35 3 Image --
1992 12 20 18 -15.4 92.5 995 35 3 Image --
1992 12 21 00 -15.7 91.5 995 35 3 Image --
1992 12 21 06 -15.7 90.6 995 35 3 Image --
1992 12 21 12 -15.6 90.0 995 35 3 Image --
1992 12 21 18 -15.5 89.3 995 35 3 Image --
1992 12 22 00 -15.2 88.6 995 35 3 Image --
1992 12 22 06 -15.0 87.7 1000 27 2 Image --
1992 12 22 12 -14.5 86.7 1000 27 2 Image --
1992 12 22 18 -14.1 85.6 1000 27 2 Image --
1992 12 23 00 -13.6 84.5 1000 27 2 Image --
< Cyclone 199210 1993 Season Cyclone 199302 >

Help